Mei Xian, China
Current Conditions -  °F | °C
As of 8:00 PM on Wednesday 22 Oct 2014 (Local Time) from ZGOW Reporting Station
Broken Clouds Broken Clouds  
Wind Chill: 77°   Ceiling: 6000
Heat Index: 79°   Visibility: 4mi
Dew Point: 70°   Wind: 9mph
Humidity: 78%   Direction: 100°E
Pressure: 30.03"   Gusts: NA
Location:  24.3°N, 116.12°E
Report Text: ZGOW 221200Z 10004MPS 7000 FEW017 BKN060 25/21 Q1017 NOSIG
Loading
Personal Weather Stations






























Interactive Weather Map
Tropical Storm Tracking
New forecast layout! Learn more

10-Day Weather Forecast

Advertisements
Track Severe Weather on mobile